Time;durP1;ratioP1;P1;durP2;ratioP2;P2;SDS_P1;SDS_P2;PMS_P1;PMS_P2;Temp;Humidity;BMP_temperature;BMP_pressure;BME280_temperature;BME280_humidity;BME280_pressure;Samples;Min_cycle;Max_cycle;Signal;HPM_P1;HPM_P2
2023/03/07 00:02:10;;;;;;;2.47;2.22;;;19.60;45.80;;;;;;5021443;28;20199;-72
2023/03/07 00:04:36;;;;;;;2.72;2.30;;;19.60;45.90;;;;;;5013482;28;20183;-71
2023/03/07 00:07:02;;;;;;;2.65;2.45;;;19.50;45.80;;;;;;5069056;22;20638;-69
2023/03/07 00:09:28;;;;;;;2.88;2.67;;;19.60;45.90;;;;;;5067452;28;20179;-70
2023/03/07 00:11:54;;;;;;;2.60;2.40;;;19.60;45.80;;;;;;5061569;28;20186;-70
2023/03/07 00:14:20;;;;;;;2.55;2.35;;;19.60;45.80;;;;;;5066443;28;20216;-70
2023/03/07 00:16:50;;;;;;;2.50;2.22;;;19.60;45.80;;;;;;5046162;28;20210;-70
2023/03/07 00:19:17;;;;;;;2.10;1.90;;;19.60;45.90;;;;;;5049660;28;20214;-70
2023/03/07 00:21:43;;;;;;;3.33;2.20;;;19.60;45.90;;;;;;5063062;28;20198;-70
2023/03/07 00:24:10;;;;;;;2.05;1.85;;;19.50;45.80;;;;;;5036075;28;20194;-70
2023/03/07 00:26:38;;;;;;;2.17;1.98;;;19.60;45.90;;;;;;5069604;28;20245;-70
2023/03/07 00:29:06;;;;;;;2.10;1.92;;;19.60;45.90;;;;;;5069749;28;20247;-70
2023/03/07 00:31:33;;;;;;;2.20;2.00;;;19.60;45.90;;;;;;5036648;28;20237;-70
2023/03/07 00:33:59;;;;;;;1.90;1.80;;;19.60;45.80;;;;;;5069921;28;20197;-70
2023/03/07 00:36:25;;;;;;;2.45;2.25;;;19.60;45.90;;;;;;5036368;28;20222;-70
2023/03/07 00:38:52;;;;;;;2.30;2.10;;;19.60;45.90;;;;;;5044578;28;20194;-70
2023/03/07 00:41:24;;;;;;;1.88;1.75;;;19.60;45.90;;;;;;5041544;28;20183;-70
2023/03/07 00:43:51;;;;;;;2.13;1.98;;;19.60;45.90;;;;;;5029325;28;20186;-70
2023/03/07 00:46:20;;;;;;;2.22;2.08;;;19.60;45.80;;;;;;5060966;28;20225;-69
2023/03/07 00:48:47;;;;;;;2.13;1.98;;;19.50;45.80;;;;;;5032872;28;20191;-70
2023/03/07 00:51:16;;;;;;;2.55;2.35;;;19.60;45.80;;;;;;5050750;28;20180;-70
2023/03/07 00:53:42;;;;;;;2.85;2.65;;;19.50;45.80;;;;;;5036018;28;20186;-71
2023/03/07 00:56:16;;;;;;;2.20;2.00;;;19.60;45.80;;;;;;5069302;28;20214;-70
2023/03/07 00:58:44;;;;;;;2.17;2.08;;;19.50;45.80;;;;;;5052461;28;20732;-69
2023/03/07 01:01:12;;;;;;;2.50;2.30;;;19.50;45.80;;;;;;5034008;28;20277;-70
2023/03/07 01:03:39;;;;;;;2.08;1.98;;;19.50;45.80;;;;;;5040950;28;20180;-70
2023/03/07 01:06:11;;;;;;;2.28;2.08;;;19.50;45.80;;;;;;5050241;28;20223;-70
2023/03/07 01:08:37;;;;;;;2.90;2.05;;;19.50;45.80;;;;;;5032743;28;20274;-69
2023/03/07 01:11:05;;;;;;;1.92;1.83;;;19.50;45.80;;;;;;5033501;28;20282;-70
2023/03/07 01:13:33;;;;;;;2.00;1.88;;;19.50;45.80;;;;;;5052506;28;20197;-70
2023/03/07 01:16:15;;;;;;;2.38;2.08;;;19.50;45.80;;;;;;5051813;28;20214;-69
2023/03/07 01:18:44;;;;;;;2.63;2.42;;;19.50;45.80;;;;;;5036111;28;20236;-70
2023/03/07 01:21:18;;;;;;;2.35;2.15;;;19.50;45.80;;;;;;5068680;28;20186;-70
2023/03/07 01:23:45;;;;;;;2.30;2.10;;;19.50;45.80;;;;;;5032334;28;20187;-70
2023/03/07 01:26:18;;;;;;;3.22;2.92;;;19.50;45.80;;;;;;5050696;28;20221;-70
2023/03/07 01:28:45;;;;;;;2.88;2.65;;;19.50;45.80;;;;;;5035421;28;20190;-70
2023/03/07 01:31:11;;;;;;;2.50;2.30;;;19.50;45.80;;;;;;5068613;28;20240;-70
2023/03/07 01:33:39;;;;;;;3.03;2.72;;;19.50;45.80;;;;;;5068014;28;20187;-70
2023/03/07 01:36:17;;;;;;;2.33;2.13;;;19.50;45.80;;;;;;5033967;28;20242;-70
2023/03/07 01:38:46;;;;;;;1.75;1.65;;;19.50;45.80;;;;;;5032001;28;20183;-70
2023/03/07 01:41:14;;;;;;;2.83;2.00;;;19.50;45.80;;;;;;5048556;28;20198;-70
2023/03/07 01:43:41;;;;;;;2.33;2.13;;;19.50;45.80;;;;;;5037151;28;20241;-70
2023/03/07 01:46:26;;;;;;;2.20;2.00;;;19.50;45.80;;;;;;5066142;28;20688;-70
2023/03/07 01:49:03;;;;;;;2.40;2.20;;;19.50;45.80;;;;;;5044118;28;20187;-70
2023/03/07 01:51:34;;;;;;;2.50;2.30;;;19.50;45.80;;;;;;5024767;28;20198;-70
2023/03/07 01:54:06;;;;;;;2.28;2.08;;;19.50;45.70;;;;;;5031835;28;20198;-70
2023/03/07 01:56:35;;;;;;;2.80;2.53;;;19.50;45.80;;;;;;5061017;28;20222;-70
2023/03/07 01:59:01;;;;;;;2.60;2.40;;;19.50;45.80;;;;;;5034720;28;20201;-70
2023/03/07 02:01:28;;;;;;;2.58;2.38;;;19.50;45.80;;;;;;5065022;28;20187;-70
2023/03/07 02:03:57;;;;;;;2.60;2.40;;;19.50;45.80;;;;;;5067916;28;20218;-70
2023/03/07 02:06:26;;;;;;;2.40;2.20;;;19.50;45.80;;;;;;5058398;28;20226;-70
2023/03/07 02:08:54;;;;;;;2.65;2.08;;;19.50;45.80;;;;;;5030675;28;20237;-70
2023/03/07 02:11:21;;;;;;;2.22;2.03;;;19.50;45.80;;;;;;5059607;28;20186;-70
2023/03/07 02:13:46;;;;;;;2.03;1.90;;;19.50;45.80;;;;;;5059551;28;20662;-70
2023/03/07 02:16:13;;;;;;;2.30;2.10;;;19.50;45.80;;;;;;5065081;28;20265;-70
2023/03/07 02:18:44;;;;;;;1.83;1.73;;;19.50;45.80;;;;;;5053253;28;20194;-70
2023/03/07 02:21:42;;;;;;;2.53;2.10;;;19.50;45.80;;;;;;5047790;28;20190;-70
2023/03/07 02:24:49;;;;;;;2.00;1.90;;;19.50;45.80;;;;;;5031037;28;20192;-70
2023/03/07 02:27:15;;;;;;;1.90;1.80;;;19.50;46.40;;;;;;5031009;28;20222;-70
2023/03/07 02:29:41;;;;;;;2.30;2.10;;;19.50;45.80;;;;;;5051042;28;20236;-70
2023/03/07 02:32:07;;;;;;;1.92;1.83;;;19.50;45.70;;;;;;5067687;28;20191;-70
2023/03/07 02:34:34;;;;;;;2.30;2.10;;;19.50;45.80;;;;;;5067595;28;20221;-70
2023/03/07 02:37:18;;;;;;;1.83;1.73;;;19.50;45.70;;;;;;5066054;28;20239;-70
2023/03/07 02:39:46;;;;;;;3.78;2.08;;;19.50;45.80;;;;;;5050974;28;20182;-70
2023/03/07 02:42:20;;;;;;;2.30;2.10;;;19.50;45.80;;;;;;5050650;28;20187;-70
2023/03/07 02:45:00;;;;;;;2.00;1.80;;;19.50;45.80;;;;;;5034190;28;20190;-70
2023/03/07 02:47:28;;;;;;;2.25;2.00;;;19.50;45.80;;;;;;5034219;28;20236;-70
2023/03/07 02:49:56;;;;;;;2.10;2.00;;;19.50;46.40;;;;;;5034320;28;20194;-70
2023/03/07 02:52:23;;;;;;;1.85;1.75;;;19.50;45.80;;;;;;5067199;28;20688;-70
2023/03/07 02:54:48;;;;;;;2.25;1.95;;;19.50;45.80;;;;;;5067480;28;20242;-70
2023/03/07 02:57:15;;;;;;;2.08;1.98;;;19.50;45.80;;;;;;5058585;28;20650;-70
2023/03/07 02:59:41;;;;;;;2.22;2.03;;;19.50;45.80;;;;;;5033996;28;20190;-70
2023/03/07 03:02:06;;;;;;;2.55;2.20;;;19.50;45.80;;;;;;5067003;28;20190;-70
2023/03/07 03:04:32;;;;;;;2.08;1.92;;;19.50;45.70;;;;;;5034021;28;20186;-70
2023/03/07 03:06:58;;;;;;;2.47;2.28;;;19.50;45.70;;;;;;5066846;28;20210;-70
2023/03/07 03:09:25;;;;;;;2.10;1.90;;;19.50;45.70;;;;;;5033869;28;20201;-70
2023/03/07 03:11:50;;;;;;;2.00;1.90;;;19.50;45.70;;;;;;5048513;28;20685;-70
2023/03/07 03:14:20;;;;;;;1.65;1.55;;;19.50;45.80;;;;;;5031822;28;20186;-70
2023/03/07 03:16:45;;;;;;;1.73;1.63;;;19.50;45.60;;;;;;5054751;28;20227;-70
2023/03/07 03:19:11;;;;;;;1.80;1.70;;;19.50;45.70;;;;;;5030295;28;20183;-70
2023/03/07 03:21:37;;;;;;;1.92;1.83;;;19.50;45.70;;;;;;5039983;28;20180;-70
2023/03/07 03:24:06;;;;;;;1.90;1.67;;;19.50;45.80;;;;;;5038474;28;20199;-70
2023/03/07 03:26:33;;;;;;;2.08;1.88;;;19.50;45.80;;;;;;5025818;28;20256;-70
2023/03/07 03:29:00;;;;;;;2.17;2.03;;;19.50;45.80;;;;;;5050362;28;20206;-70
2023/03/07 03:31:29;;;;;;;1.70;1.60;;;19.50;45.70;;;;;;5066825;28;20186;-70
2023/03/07 03:33:57;;;;;;;1.55;1.45;;;19.40;45.70;;;;;;5058756;28;20228;-70
2023/03/07 03:36:25;;;;;;;1.98;1.88;;;19.50;45.70;;;;;;5046510;28;20223;-70
2023/03/07 03:38:58;;;;;;;1.90;1.80;;;19.50;45.70;;;;;;5050336;28;20179;-70
2023/03/07 03:41:25;;;;;;;2.05;1.85;;;19.50;45.60;;;;;;5022240;28;20184;-70
2023/03/07 03:43:51;;;;;;;1.92;1.73;;;19.50;45.60;;;;;;5055019;28;20183;-70
2023/03/07 03:46:18;;;;;;;3.15;2.13;;;19.50;45.70;;;;;;5029748;28;20212;-70
2023/03/07 03:48:52;;;;;;;2.00;1.80;;;19.50;45.60;;;;;;5043882;28;20213;-70
2023/03/07 03:51:20;;;;;;;1.83;1.73;;;19.50;45.70;;;;;;5041671;28;20255;-70
2023/03/07 03:53:47;;;;;;;2.45;2.25;;;19.40;45.60;;;;;;5029957;28;20195;-70
2023/03/07 03:56:17;;;;;;;2.78;1.60;;;19.50;45.60;;;;;;5061558;28;20221;-70
2023/03/07 03:58:46;;;;;;;1.92;1.80;;;19.50;45.70;;;;;;5065060;28;20183;-70
2023/03/07 04:01:12;;;;;;;1.77;1.67;;;19.50;45.70;;;;;;5033481;28;20175;-70
2023/03/07 04:03:45;;;;;;;1.60;1.50;;;19.40;45.60;;;;;;5050238;28;20184;-70
2023/03/07 04:06:22;;;;;;;1.92;1.83;;;19.40;45.60;;;;;;5041653;28;20215;-70
2023/03/07 04:08:49;;;;;;;1.88;1.70;;;19.40;45.60;;;;;;5056476;28;20186;-69
2023/03/07 04:11:15;;;;;;;1.75;1.58;;;19.40;45.60;;;;;;5051273;28;20182;-70
2023/03/07 04:13:42;;;;;;;1.27;1.27;;;19.50;45.70;;;;;;5036935;28;20182;-70
2023/03/07 04:16:08;;;;;;;1.80;1.70;;;19.40;45.60;;;;;;5052770;28;20218;-70
2023/03/07 04:18:36;;;;;;;1.73;1.63;;;19.40;46.20;;;;;;5050358;28;20227;-70
2023/03/07 04:21:04;;;;;;;1.95;1.67;;;19.40;45.50;;;;;;5065998;28;20279;-70
2023/03/07 04:23:32;;;;;;;1.83;1.73;;;19.50;45.70;;;;;;5053286;28;20179;-70
2023/03/07 04:26:01;;;;;;;2.13;1.92;;;19.40;45.60;;;;;;5054452;28;20242;-70
2023/03/07 04:28:44;;;;;;;2.17;1.98;;;19.40;45.60;;;;;;5033469;28;20194;-70
2023/03/07 04:31:24;;;;;;;2.05;1.95;;;19.50;45.70;;;;;;5042925;28;20184;-70
2023/03/07 04:33:51;;;;;;;1.70;1.60;;;19.40;45.50;;;;;;5036468;28;20190;-70
2023/03/07 04:36:17;;;;;;;2.08;1.88;;;19.50;45.60;;;;;;5036187;28;20218;-69
2023/03/07 04:38:46;;;;;;;1.73;1.63;;;19.40;45.60;;;;;;5036447;28;20182;-70
2023/03/07 04:41:19;;;;;;;1.77;1.67;;;19.40;45.60;;;;;;5036322;28;20182;-70
2023/03/07 04:43:47;;;;;;;1.88;1.77;;;19.40;45.60;;;;;;5044779;28;20220;-70
2023/03/07 04:46:18;;;;;;;1.70;1.60;;;19.50;45.60;;;;;;5051844;28;20233;-71
2023/03/07 04:48:45;;;;;;;1.85;1.75;;;19.40;45.50;;;;;;5038053;28;20197;-70
2023/03/07 04:51:12;;;;;;;2.30;1.80;;;19.50;45.60;;;;;;5036436;28;20236;-70
2023/03/07 04:53:38;;;;;;;1.77;1.67;;;19.40;45.50;;;;;;5052576;28;20273;-70
2023/03/07 04:56:07;;;;;;;2.00;1.90;;;19.40;45.60;;;;;;5060797;28;20711;-70
2023/03/07 04:58:35;;;;;;;1.90;1.77;;;19.40;45.60;;;;;;5036062;28;20171;-70
2023/03/07 05:01:03;;;;;;;2.20;2.00;;;19.40;45.50;;;;;;5036062;28;20189;-70
2023/03/07 05:03:29;;;;;;;1.92;1.83;;;19.50;45.60;;;;;;5044221;28;20183;-70
2023/03/07 05:06:02;;;;;;;1.88;1.77;;;19.40;45.50;;;;;;5061029;28;20213;-70
2023/03/07 05:08:29;;;;;;;1.95;1.85;;;19.50;45.60;;;;;;5051561;28;20191;-69
2023/03/07 05:10:55;;;;;;;2.25;1.90;;;19.40;45.40;;;;;;5044647;28;20262;-70
2023/03/07 05:13:21;;;;;;;2.03;1.83;;;19.40;46.10;;;;;;5049774;28;20228;-69
2023/03/07 05:15:55;;;;;;;1.60;1.50;;;19.40;45.40;;;;;;5037848;28;20587;-70
2023/03/07 05:18:22;;;;;;;1.83;1.70;;;19.40;45.50;;;;;;5042463;28;20175;-69
2023/03/07 05:20:49;;;;;;;2.45;1.60;;;19.40;45.50;;;;;;5046813;28;20260;-70
2023/03/07 05:23:17;;;;;;;1.70;1.60;;;19.40;45.50;;;;;;5068263;28;20186;-69
2023/03/07 05:25:45;;;;;;;1.70;1.60;;;19.40;45.50;;;;;;5057427;28;20207;-70
2023/03/07 05:28:13;;;;;;;1.48;1.38;;;19.40;45.50;;;;;;5049383;28;20178;-71
2023/03/07 05:30:38;;;;;;;2.75;1.80;;;19.50;45.60;;;;;;5061312;28;20193;-70
2023/03/07 05:33:04;;;;;;;1.50;1.40;;;19.50;45.60;;;;;;5035949;28;20183;-70
2023/03/07 05:35:31;;;;;;;1.52;1.42;;;19.40;45.50;;;;;;5049345;28;20250;-69
2023/03/07 05:37:58;;;;;;;2.22;1.80;;;19.40;45.50;;;;;;5055573;28;20607;-70
2023/03/07 05:40:24;;;;;;;1.60;1.50;;;19.40;45.50;;;;;;5060753;28;20270;-70
2023/03/07 05:42:49;;;;;;;2.10;2.00;;;19.50;45.60;;;;;;5049143;28;20528;-70
2023/03/07 05:45:16;;;;;;;2.38;2.17;;;19.40;45.50;;;;;;5024449;28;20286;-70
2023/03/07 05:47:42;;;;;;;1.75;1.65;;;19.40;45.50;;;;;;5032619;28;20278;-70
2023/03/07 05:50:10;;;;;;;1.98;1.88;;;19.40;45.40;;;;;;5057633;28;20186;-69
2023/03/07 05:52:37;;;;;;;2.25;2.05;;;19.40;45.50;;;;;;5048810;28;20217;-70
2023/03/07 05:55:03;;;;;;;2.40;2.22;;;19.40;45.40;;;;;;5064233;28;20210;-70
2023/03/07 05:57:30;;;;;;;2.08;1.98;;;19.40;45.40;;;;;;5051394;28;20209;-69
2023/03/07 05:59:56;;;;;;;1.92;1.80;;;19.40;45.50;;;;;;5037744;28;20260;-70
2023/03/07 06:02:22;;;;;;;1.77;1.67;;;19.40;45.50;;;;;;5065146;28;20738;-70
2023/03/07 06:04:48;;;;;;;2.00;1.80;;;19.40;45.40;;;;;;5057052;28;20213;-71
2023/03/07 06:07:14;;;;;;;1.67;1.58;;;19.40;45.40;;;;;;5068088;23;20379;-73
2023/03/07 06:09:40;;;;;;;2.67;1.70;;;19.40;45.40;;;;;;5051762;28;20308;-71
2023/03/07 06:12:09;;;;;;;1.75;1.65;;;19.40;45.50;;;;;;5051674;28;20182;-72
2023/03/07 06:14:35;;;;;;;1.83;1.73;;;19.40;45.50;;;;;;5035053;28;20629;-72
2023/03/07 06:17:02;;;;;;;1.80;1.70;;;19.40;45.50;;;;;;5050920;28;20209;-72
2023/03/07 06:19:28;;;;;;;1.75;1.65;;;19.40;45.50;;;;;;5050834;28;20270;-71
2023/03/07 06:21:54;;;;;;;2.08;1.75;;;19.40;45.50;;;;;;5047702;28;20274;-71
2023/03/07 06:24:20;;;;;;;1.80;1.70;;;19.40;45.50;;;;;;5031431;28;20190;-72
2023/03/07 06:26:46;;;;;;;2.00;1.67;;;19.40;45.50;;;;;;5050257;28;20206;-71
2023/03/07 06:29:13;;;;;;;2.88;1.70;;;19.40;45.50;;;;;;5047652;28;20261;-72
2023/03/07 06:31:39;;;;;;;2.20;1.75;;;19.40;45.50;;;;;;5034399;28;20270;-72
2023/03/07 06:34:04;;;;;;;1.70;1.60;;;19.40;45.50;;;;;;5051211;28;20197;-72
2023/03/07 06:36:30;;;;;;;2.25;2.05;;;19.40;45.50;;;;;;5050137;28;20705;-70
2023/03/07 06:38:59;;;;;;;2.13;1.92;;;19.40;45.50;;;;;;5033198;28;20178;-72
2023/03/07 06:41:25;;;;;;;1.92;1.80;;;19.40;45.40;;;;;;5049624;28;20732;-72
2023/03/07 06:43:53;;;;;;;2.40;2.20;;;19.40;45.50;;;;;;5050578;28;20186;-72
2023/03/07 06:46:25;;;;;;;2.40;1.90;;;19.40;45.50;;;;;;5050368;28;20214;-71
2023/03/07 06:48:51;;;;;;;2.70;1.92;;;19.40;45.50;;;;;;5034030;28;20189;-72
2023/03/07 06:51:19;;;;;;;2.22;2.05;;;19.40;45.50;;;;;;5034166;28;20187;-71
2023/03/07 06:53:46;;;;;;;2.30;2.05;;;19.40;45.50;;;;;;5050397;28;20209;-73
2023/03/07 06:56:12;;;;;;;1.95;1.85;;;19.40;45.40;;;;;;5050253;28;20214;-71
2023/03/07 06:58:39;;;;;;;2.72;1.60;;;19.40;45.40;;;;;;5050768;28;20188;-72
2023/03/07 07:01:06;;;;;;;1.90;1.80;;;19.40;45.40;;;;;;5050578;28;20214;-72
2023/03/07 07:03:33;;;;;;;2.10;1.90;;;19.40;45.50;;;;;;5050380;28;20270;-71
2023/03/07 07:06:01;;;;;;;2.25;1.77;;;19.40;45.40;;;;;;5033432;28;20319;-72
2023/03/07 07:08:27;;;;;;;2.17;1.75;;;19.40;45.40;;;;;;5050427;28;20209;-71
2023/03/07 07:10:58;;;;;;;1.90;1.80;;;19.40;45.40;;;;;;5050516;28;20182;-71
2023/03/07 07:13:24;;;;;;;1.83;1.67;;;19.40;45.40;;;;;;5050460;28;20190;-72
2023/03/07 07:15:50;;;;;;;2.10;2.00;;;19.40;45.50;;;;;;5050059;28;20598;-72
2023/03/07 07:18:16;;;;;;;1.88;1.77;;;19.40;45.40;;;;;;5049849;28;20646;-72
2023/03/07 07:20:42;;;;;;;2.35;1.60;;;19.40;45.40;;;;;;5050391;28;20186;-71
2023/03/07 07:23:08;;;;;;;2.08;1.88;;;19.40;45.30;;;;;;5050384;28;20189;-71
2023/03/07 07:25:34;;;;;;;2.33;1.88;;;19.50;45.40;;;;;;5050088;28;20214;-71
2023/03/07 07:28:00;;;;;;;1.95;1.85;;;19.50;45.40;;;;;;5050200;28;20191;-71
2023/03/07 07:30:26;;;;;;;1.90;1.80;;;19.50;45.30;;;;;;5050353;28;20233;-71
2023/03/07 07:32:52;;;;;;;2.55;2.15;;;19.50;45.30;;;;;;5052871;28;20206;-71
2023/03/07 07:35:19;;;;;;;2.15;1.95;;;19.50;45.20;;;;;;5037318;28;20217;-72
2023/03/07 07:37:46;;;;;;;1.88;1.48;;;19.50;45.20;;;;;;5061196;28;20217;-71
2023/03/07 07:40:13;;;;;;;2.13;1.92;;;19.50;45.20;;;;;;5037456;28;20194;-72
2023/03/07 07:42:39;;;;;;;2.17;1.98;;;19.50;45.20;;;;;;5054049;28;20187;-72
2023/03/07 07:45:17;;;;;;;2.20;2.00;;;19.50;45.20;;;;;;5053901;28;20182;-71
2023/03/07 07:47:43;;;;;;;2.83;1.75;;;19.50;45.20;;;;;;5070636;28;20190;-71
2023/03/07 07:50:09;;;;;;;1.70;1.60;;;19.50;45.20;;;;;;5053933;28;20565;-71
2023/03/07 07:52:35;;;;;;;2.05;1.85;;;19.50;45.20;;;;;;5053791;28;20194;-71
2023/03/07 07:55:01;;;;;;;1.83;1.73;;;19.50;45.20;;;;;;5053781;28;20210;-71
2023/03/07 07:57:27;;;;;;;2.20;2.00;;;19.50;45.20;;;;;;5053215;28;20229;-72
2023/03/07 07:59:55;;;;;;;2.03;1.83;;;19.60;45.20;;;;;;5037432;28;20206;-71
2023/03/07 08:02:21;;;;;;;1.70;1.60;;;19.60;45.20;;;;;;5053700;28;20272;-72
2023/03/07 08:04:47;;;;;;;2.28;1.98;;;19.60;45.20;;;;;;5053564;28;20190;-72
2023/03/07 08:07:13;;;;;;;2.58;1.58;;;19.60;45.20;;;;;;5050026;28;20214;-72
2023/03/07 08:09:39;;;;;;;1.92;1.83;;;19.60;45.20;;;;;;5053516;28;20182;-71
2023/03/07 08:12:05;;;;;;;1.80;1.70;;;19.60;45.20;;;;;;5053651;28;20183;-72
2023/03/07 08:14:33;;;;;;;1.70;1.58;;;19.60;45.20;;;;;;5053141;28;20197;-71
2023/03/07 08:16:59;;;;;;;1.75;1.65;;;19.60;45.20;;;;;;5041829;28;20214;-72
2023/03/07 08:19:25;;;;;;;2.10;1.90;;;19.60;45.30;;;;;;5036621;28;20189;-71
2023/03/07 08:21:51;;;;;;;1.70;1.60;;;19.60;45.20;;;;;;5054037;28;20194;-71
2023/03/07 08:24:17;;;;;;;2.78;1.77;;;19.60;45.30;;;;;;5053045;28;20635;-71
2023/03/07 08:26:42;;;;;;;2.10;2.00;;;19.60;45.20;;;;;;5052996;28;20214;-72
2023/03/07 08:29:08;;;;;;;1.85;1.75;;;19.60;45.20;;;;;;5053357;28;20181;-72
2023/03/07 08:31:34;;;;;;;1.77;1.67;;;19.60;45.20;;;;;;5053237;28;20189;-71
2023/03/07 08:34:00;;;;;;;1.67;1.50;;;19.60;45.20;;;;;;5052999;28;20182;-71
2023/03/07 08:36:26;;;;;;;2.00;1.88;;;19.50;45.20;;;;;;5052733;28;20226;-71
2023/03/07 08:38:52;;;;;;;2.13;1.70;;;19.60;45.20;;;;;;5052993;28;20210;-72
2023/03/07 08:41:20;;;;;;;1.95;1.73;;;19.60;45.20;;;;;;5052832;28;20677;-72
2023/03/07 08:43:46;;;;;;;2.78;1.58;;;19.50;45.10;;;;;;5051668;28;20182;-72
2023/03/07 08:46:12;;;;;;;1.73;1.63;;;19.50;45.10;;;;;;5052816;28;20275;-72
2023/03/07 08:48:38;;;;;;;2.25;1.67;;;19.60;45.20;;;;;;5052768;28;20197;-72
2023/03/07 08:51:13;;;;;;;1.80;1.70;;;19.60;45.20;;;;;;5052923;28;20190;-71
2023/03/07 08:53:41;;;;;;;1.95;1.80;;;19.60;45.20;;;;;;5052483;28;20190;-71
2023/03/07 08:56:10;;;;;;;1.67;1.58;;;19.60;45.80;;;;;;5035746;28;20218;-71
2023/03/07 08:58:36;;;;;;;1.90;1.70;;;19.60;45.10;;;;;;5052841;28;20232;-72
2023/03/07 09:01:03;;;;;;;1.73;1.63;;;19.60;45.10;;;;;;5052527;28;20269;-72
2023/03/07 09:03:29;;;;;;;1.33;1.23;;;19.60;45.10;;;;;;5052409;28;20240;-71
2023/03/07 09:05:55;;;;;;;1.83;1.48;;;19.60;45.10;;;;;;5052090;28;20308;-71
2023/03/07 09:08:21;;;;;;;1.60;1.40;;;19.60;45.10;;;;;;5052262;28;20195;-71
2023/03/07 09:10:47;;;;;;;1.52;1.42;;;19.60;45.10;;;;;;5052314;28;20197;-71
2023/03/07 09:13:13;;;;;;;2.60;1.88;;;19.60;45.10;;;;;;5052536;28;20739;-71
2023/03/07 09:15:40;;;;;;;1.60;1.50;;;19.60;45.10;;;;;;5052070;28;20241;-71
2023/03/07 09:18:10;;;;;;;1.60;1.50;;;19.60;45.20;;;;;;5035389;28;20182;-71
2023/03/07 09:20:40;;;;;;;1.90;1.70;;;19.60;45.10;;;;;;5052348;28;20215;-71
2023/03/07 09:23:07;;;;;;;1.90;1.70;;;19.60;45.10;;;;;;5052322;28;20240;-72
2023/03/07 09:25:33;;;;;;;1.75;1.65;;;19.60;45.10;;;;;;5051903;28;20197;-71
2023/03/07 09:27:59;;;;;;;2.17;1.98;;;19.60;45.10;;;;;;5052031;28;20232;-72
2023/03/07 09:30:27;;;;;;;1.67;1.58;;;19.60;45.10;;;;;;5051954;28;20576;-71
2023/03/07 09:32:53;;;;;;;1.75;1.65;;;19.60;45.70;;;;;;5068524;28;20281;-72
2023/03/07 09:35:19;;;;;;;1.60;1.50;;;19.60;45.10;;;;;;5068773;28;20301;-72
2023/03/07 09:37:44;;;;;;;2.03;1.45;;;19.60;45.10;;;;;;5051853;28;20182;-71
2023/03/07 09:40:22;;;;;;;1.65;1.55;;;19.60;45.10;;;;;;5051989;28;20179;-72
2023/03/07 09:43:14;;;;;;;1.45;1.35;;;19.60;45.20;;;;;;5051525;28;20577;-72
2023/03/07 09:46:05;;;;;;;1.40;1.30;;;19.60;45.20;;;;;;5067747;28;20209;-71
2023/03/07 09:49:01;;;;;;;1.90;1.80;;;19.60;45.10;;;;;;5051681;28;20190;-72
2023/03/07 09:51:51;;;;;;;1.67;1.58;;;19.60;45.10;;;;;;5051818;28;20204;-71
2023/03/07 09:54:43;;;;;;;1.70;1.30;;;19.60;45.00;;;;;;5051404;28;20553;-71
2023/03/07 09:57:20;;;;;;;1.60;1.50;;;19.60;45.10;;;;;;5050948;28;20218;-72
2023/03/07 09:59:52;;;;;;;1.55;1.45;;;19.60;45.20;;;;;;5051414;28;20182;-71
2023/03/07 10:02:35;;;;;;;1.58;1.48;;;19.60;45.20;;;;;;5040702;28;20614;-71
2023/03/07 10:05:44;;;;;;;1.48;1.38;;;19.60;45.10;;;;;;5034781;28;20231;-72
2023/03/07 10:08:17;;;;;;;1.52;1.42;;;19.60;45.10;;;;;;5052286;28;20200;-71
2023/03/07 10:10:56;;;;;;;1.42;1.33;;;19.60;45.10;;;;;;5068631;28;20182;-71
2023/03/07 10:13:56;;;;;;;2.53;1.55;;;19.60;45.10;;;;;;5053045;28;20178;-71
2023/03/07 10:16:58;;;;;;;1.42;1.33;;;19.60;45.10;;;;;;5055772;28;20236;-71
2023/03/07 10:19:49;;;;;;;1.40;1.30;;;19.60;45.20;;;;;;5049492;28;20186;-71
2023/03/07 10:22:47;;;;;;;1.52;1.42;;;19.60;45.10;;;;;;5051938;28;20186;-71
2023/03/07 10:25:33;;;;;;;1.48;1.33;;;19.60;45.10;;;;;;5046228;28;20183;-72
2023/03/07 10:28:20;;;;;;;1.30;1.20;;;19.60;45.10;;;;;;5051228;28;20277;-71
2023/03/07 10:30:50;;;;;;;1.65;1.48;;;19.60;45.20;;;;;;5068012;28;20191;-71
2023/03/07 10:33:18;;;;;;;1.70;1.48;;;19.60;45.20;;;;;;5051697;28;20190;-71
2023/03/07 10:35:56;;;;;;;1.50;1.40;;;19.60;45.00;;;;;;5047997;28;20273;-71
2023/03/07 10:38:39;;;;;;;1.48;1.38;;;19.60;45.10;;;;;;5039231;28;20327;-71
2023/03/07 10:41:13;;;;;;;1.50;1.40;;;19.60;45.10;;;;;;5068008;28;20204;-71
2023/03/07 10:43:42;;;;;;;1.52;1.35;;;19.60;45.10;;;;;;5051429;28;20566;-73
2023/03/07 10:46:19;;;;;;;1.50;1.40;;;19.60;45.20;;;;;;5051007;28;20262;-73
2023/03/07 10:48:53;;;;;;;1.90;1.48;;;19.60;45.20;;;;;;5051187;28;20787;-72
2023/03/07 10:51:56;;;;;;;1.75;1.45;;;19.60;45.10;;;;;;5051387;28;20198;-73
2023/03/07 10:54:31;;;;;;;2.03;1.48;;;19.60;45.10;;;;;;5038903;28;20186;-73
2023/03/07 10:57:17;;;;;;;1.40;1.27;;;19.60;45.10;;;;;;5067625;28;20748;-73
2023/03/07 10:59:51;;;;;;;1.60;1.50;;;19.60;45.00;;;;;;5067845;28;20170;-73
2023/03/07 11:02:32;;;;;;;1.50;1.40;;;19.60;45.20;;;;;;5051079;28;20207;-73
2023/03/07 11:04:58;;;;;;;1.13;1.13;;;19.60;45.20;;;;;;5052256;28;20273;-73
2023/03/07 11:07:35;;;;;;;1.75;1.50;;;19.60;45.10;;;;;;5050409;28;20337;-73
2023/03/07 11:10:39;;;;;;;1.25;1.15;;;19.60;45.10;;;;;;5051254;28;20172;-73
2023/03/07 11:13:18;;;;;;;1.75;1.45;;;19.60;45.10;;;;;;5061037;28;20291;-73
2023/03/07 11:15:45;;;;;;;1.67;1.58;;;19.60;45.10;;;;;;5050696;28;20639;-72
2023/03/07 11:18:41;;;;;;;1.70;1.58;;;19.60;45.10;;;;;;5050858;28;20190;-73
2023/03/07 11:21:33;;;;;;;1.73;1.63;;;19.60;45.10;;;;;;5045834;28;20202;-73
2023/03/07 11:24:24;;;;;;;1.73;1.63;;;19.60;45.20;;;;;;5034974;28;20198;-73
2023/03/07 11:26:54;;;;;;;1.98;1.88;;;19.60;45.20;;;;;;5025383;28;20206;-73
2023/03/07 11:29:20;;;;;;;2.17;2.08;;;19.60;45.10;;;;;;5045862;28;20189;-72
2023/03/07 11:32:03;;;;;;;2.47;1.85;;;19.60;45.10;;;;;;5050298;28;20182;-74
2023/03/07 11:34:55;;;;;;;1.85;1.75;;;19.60;45.10;;;;;;5067497;28;20212;-73
2023/03/07 11:37:36;;;;;;;1.85;1.75;;;19.70;45.10;;;;;;5051754;28;20256;-74
2023/03/07 11:40:34;;;;;;;2.78;1.98;;;19.70;45.20;;;;;;5037812;28;20194;-72
2023/03/07 11:43:18;;;;;;;2.00;1.88;;;19.60;45.10;;;;;;5059603;28;20598;-74
2023/03/07 11:46:33;;;;;;;2.17;2.03;;;19.70;45.20;;;;;;5050196;28;20660;-73
2023/03/07 11:49:17;;;;;;;2.20;2.00;;;19.70;45.30;;;;;;5050781;28;20213;-73
2023/03/07 11:52:40;;;;;;;1.85;1.70;;;19.70;45.10;;;;;;5046929;28;20244;-73
2023/03/07 11:55:35;;;;;;;2.60;2.40;;;19.70;45.20;;;;;;5002126;28;20206;-73
2023/03/07 11:58:31;;;;;;;2.38;2.17;;;19.70;45.00;;;;;;5039307;28;20176;-73
2023/03/07 12:01:23;;;;;;;2.00;1.80;;;19.70;45.10;;;;;;5047174;28;20179;-72
2023/03/07 12:04:43;;;;;;;1.80;1.70;;;19.70;45.20;;;;;;5050308;28;20198;-72
2023/03/07 12:07:20;;;;;;;2.28;2.08;;;19.70;45.00;;;;;;5044397;28;20223;-72
2023/03/07 12:10:16;;;;;;;2.85;2.00;;;19.60;45.00;;;;;;5050578;28;20209;-73
2023/03/07 12:12:48;;;;;;;2.33;2.13;;;19.60;45.00;;;;;;5030333;28;20191;-73
2023/03/07 12:15:53;;;;;;;1.85;1.75;;;19.60;45.10;;;;;;5060891;28;20270;-73
2023/03/07 12:18:52;;;;;;;2.10;2.00;;;19.70;45.20;;;;;;5071654;22;20620;-70
2023/03/07 12:21:50;;;;;;;2.40;2.20;;;19.60;45.00;;;;;;5006713;28;20264;-70
2023/03/07 12:24:29;;;;;;;2.58;2.38;;;19.60;45.10;;;;;;5012118;28;20183;-70
2023/03/07 12:27:08;;;;;;;2.03;1.90;;;19.60;45.10;;;;;;5024141;28;20241;-71
2023/03/07 12:29:42;;;;;;;2.75;2.40;;;19.70;45.20;;;;;;5018109;28;20236;-71
2023/03/07 12:32:16;;;;;;;2.53;2.35;;;19.70;45.30;;;;;;5015130;28;20254;-69
2023/03/07 12:35:08;;;;;;;2.53;2.25;;;19.70;45.20;;;;;;4998105;28;20183;-70
2023/03/07 12:37:49;;;;;;;2.22;2.08;;;19.70;45.20;;;;;;5015092;28;20550;-71
2023/03/07 12:40:50;;;;;;;2.85;2.47;;;19.70;45.20;;;;;;4997579;28;20188;-70
2023/03/07 12:43:48;;;;;;;2.78;2.40;;;19.70;45.20;;;;;;4996894;28;20188;-70
2023/03/07 12:46:37;;;;;;;2.30;2.10;;;19.60;45.20;;;;;;5011501;28;20612;-70
2023/03/07 12:49:38;;;;;;;2.60;2.35;;;19.70;45.20;;;;;;5022003;28;20219;-70
2023/03/07 12:52:15;;;;;;;2.83;2.10;;;19.70;45.10;;;;;;5000883;28;20333;-71
2023/03/07 12:54:55;;;;;;;2.75;2.15;;;19.60;45.10;;;;;;5000743;28;20281;-70
2023/03/07 12:57:33;;;;;;;2.22;2.10;;;19.70;45.30;;;;;;4996531;28;20188;-71
2023/03/07 13:00:06;;;;;;;2.20;2.00;;;19.60;45.20;;;;;;4997495;28;20215;-70
2023/03/07 13:02:43;;;;;;;2.35;2.15;;;19.60;45.40;;;;;;4997136;28;20673;-70
2023/03/07 13:05:20;;;;;;;3.42;2.38;;;19.60;45.20;;;;;;4998833;28;20196;-70
2023/03/07 13:07:48;;;;;;;2.95;2.30;;;19.60;45.10;;;;;;5013438;28;20214;-69
2023/03/07 13:10:20;;;;;;;2.38;2.10;;;19.70;45.20;;;;;;5019924;28;20179;-70
2023/03/07 13:12:47;;;;;;;2.35;2.15;;;19.70;45.20;;;;;;5015513;28;20334;-70
2023/03/07 13:15:16;;;;;;;2.67;2.10;;;19.60;45.00;;;;;;5013366;28;20208;-70